Kyokuho Maru No.15 — JI3715 — position and weather

sailwx.info

Track history (hours):
 
Tides and Currents Weather Stations Pressure Air Temp Water Temp Dewpoint Dewpoint Depression Visibility Wind Speed Wind Dir Waves Ship Positions

Kyokuho Maru No.15

Last reported at 2017-Jan-17 02:33 UTC. Time now 2017-Jan-17 10:52 UTC.
Position N 34°36' E 135°04'.

Length 63 m; draft 3.2 m.

Type: Tanker. MMSI: 431301714.

Date/timePositionNaut miles runAvg speedWind from/ knotsBaromVisibWave heightAir tempDewpointWater temp
2017-Jan-17 02:33N 34°36' E 135°04'1010.2
2017-Jan-17 01:33N 34°40' E 135°15'2 2.0
2017-Jan-17 00:33N 34°42' E 135°15'0 0.0
2017-Jan-16 23:33N 34°42' E 135°15'2 1.8
2017-Jan-16 22:33N 34°41' E 135°16'3 2.5
2017-Jan-16 21:28N 34°39' E 135°19'0 0.0
2017-Jan-16 20:33N 34°39' E 135°19'0 0.0
2017-Jan-16 19:33N 34°39' E 135°19'0 0.0
2017-Jan-16 18:33N 34°39' E 135°19'8 8.4
2017-Jan-16 17:33N 34°36' E 135°10'  
2017-Jan-14 03:33N 34°37' E 134°57'16 4.0
2017-Jan-13 23:33N 34°42' E 135°15'1 1.3
2017-Jan-13 22:33N 34°41' E 135°15'4 3.2
2017-Jan-13 21:22N 34°39' E 135°19'0 0.0
2017-Jan-13 20:29N 34°39' E 135°19'0 0.0
2017-Jan-13 19:28N 34°39' E 135°19'0 0.0
2017-Jan-13 18:29N 34°39' E 135°19'0 0.0
2017-Jan-13 17:16N 34°39' E 135°19'1 1.1
2017-Jan-13 16:33N 34°39' E 135°18'1212.1
2017-Jan-13 15:33N 34°35' E 135°04'  
2017-Jan-11 05:33N 34°37' E 134°56'8 7.7
2017-Jan-11 04:33N 34°37' E 135°05'1110.8
2017-Jan-11 03:33N 34°39' E 135°18'1 0.7
2017-Jan-11 02:33N 34°39' E 135°19'1 1.2
2017-Jan-11 01:33N 34°40' E 135°18'0 0.0
2017-Jan-11 00:33N 34°40' E 135°18'0 0.0
2017-Jan-10 23:33N 34°40' E 135°18'0 0.0
2017-Jan-10 22:33N 34°40' E 135°18'1 1.2
2017-Jan-10 21:27N 34°39' E 135°19'0 0.0
2017-Jan-10 20:33N 34°39' E 135°19'0 0.0
2017-Jan-10 19:27N 34°39' E 135°19'0 0.0
2017-Jan-10 18:33N 34°39' E 135°19'0 0.1
2017-Jan-10 17:33N 34°39' E 135°19'0 0.0
2017-Jan-10 16:33N 34°39' E 135°19'0 0.0
2017-Jan-10 15:33N 34°39' E 135°19'0 0.1
2017-Jan-10 14:33N 34°39' E 135°19'0 0.0
2017-Jan-10 13:33N 34°39' E 135°19'6 5.7
2017-Jan-10 12:33N 34°37' E 135°13'17 0.8
2017-Jan-09 16:12N 34°35' E 134°53'6 9.4
2017-Jan-09 15:33N 34°37' E 134°60'9 9.4
2017-Jan-09 14:33N 34°35' E 135°10'1211.8
2017-Jan-09 13:33N 34°32' E 135°24'1 0.0
2017-Jan-08 06:26N 34°31' E 135°24'2 2.6
2017-Jan-08 05:32N 34°32' E 135°22'3 2.3
2017-Jan-08 04:18N 34°32' E 135°25'0 0.0
2017-Jan-08 03:33N 34°32' E 135°25'0 0.0
2017-Jan-08 02:30N 34°32' E 135°25'0 0.0
2017-Jan-08 01:32N 34°32' E 135°25'0 0.0
2017-Jan-08 00:12N 34°32' E 135°25'2 3.3
2017-Jan-07 23:33N 34°33' E 135°23'1110.7
2017-Jan-07 22:33N 34°34' E 135°10'  
Track history (hours):
 
Tides and Currents Weather Stations Pressure Air Temp Water Temp Dewpoint Dewpoint Depression Visibility Wind Speed Wind Dir Waves Ship Positions

Kyokuho Maru No.15

Last reported at 2017-Jan-17 02:33 UTC. Time now 2017-Jan-17 10:52 UTC.
Position N 34°36' E 135°04'.

Length 63 m; draft 3.2 m.

Type: Tanker. MMSI: 431301714.

Date/timePositionNaut miles runAvg speedWind from/ knotsBaromVisibWave heightAir tempDewpointWater temp
2017-Jan-17 02:33N 34°36' E 135°04'1010.2
2017-Jan-17 01:33N 34°40' E 135°15'2 2.0
2017-Jan-17 00:33N 34°42' E 135°15'0 0.0
2017-Jan-16 23:33N 34°42' E 135°15'2 1.8
2017-Jan-16 22:33N 34°41' E 135°16'3 2.5
2017-Jan-16 21:28N 34°39' E 135°19'0 0.0
2017-Jan-16 20:33N 34°39' E 135°19'0 0.0
2017-Jan-16 19:33N 34°39' E 135°19'0 0.0
2017-Jan-16 18:33N 34°39' E 135°19'8 8.4
2017-Jan-16 17:33N 34°36' E 135°10'  
2017-Jan-14 03:33N 34°37' E 134°57'16 4.0
2017-Jan-13 23:33N 34°42' E 135°15'1 1.3
2017-Jan-13 22:33N 34°41' E 135°15'4 3.2
2017-Jan-13 21:22N 34°39' E 135°19'0 0.0
2017-Jan-13 20:29N 34°39' E 135°19'0 0.0
2017-Jan-13 19:28N 34°39' E 135°19'0 0.0
2017-Jan-13 18:29N 34°39' E 135°19'0 0.0
2017-Jan-13 17:16N 34°39' E 135°19'1 1.1
2017-Jan-13 16:33N 34°39' E 135°18'1212.1
2017-Jan-13 15:33N 34°35' E 135°04'  
2017-Jan-11 05:33N 34°37' E 134°56'8 7.7
2017-Jan-11 04:33N 34°37' E 135°05'1110.8
2017-Jan-11 03:33N 34°39' E 135°18'1 0.7
2017-Jan-11 02:33N 34°39' E 135°19'1 1.2
2017-Jan-11 01:33N 34°40' E 135°18'0 0.0
2017-Jan-11 00:33N 34°40' E 135°18'0 0.0
2017-Jan-10 23:33N 34°40' E 135°18'0 0.0
2017-Jan-10 22:33N 34°40' E 135°18'1 1.2
2017-Jan-10 21:27N 34°39' E 135°19'0 0.0
2017-Jan-10 20:33N 34°39' E 135°19'0 0.0
2017-Jan-10 19:27N 34°39' E 135°19'0 0.0
2017-Jan-10 18:33N 34°39' E 135°19'0 0.1
2017-Jan-10 17:33N 34°39' E 135°19'0 0.0
2017-Jan-10 16:33N 34°39' E 135°19'0 0.0
2017-Jan-10 15:33N 34°39' E 135°19'0 0.1
2017-Jan-10 14:33N 34°39' E 135°19'0 0.0
2017-Jan-10 13:33N 34°39' E 135°19'6 5.7
2017-Jan-10 12:33N 34°37' E 135°13'17 0.8
2017-Jan-09 16:12N 34°35' E 134°53'6 9.4
2017-Jan-09 15:33N 34°37' E 134°60'9 9.4
2017-Jan-09 14:33N 34°35' E 135°10'1211.8
2017-Jan-09 13:33N 34°32' E 135°24'1 0.0
2017-Jan-08 06:26N 34°31' E 135°24'2 2.6
2017-Jan-08 05:32N 34°32' E 135°22'3 2.3
2017-Jan-08 04:18N 34°32' E 135°25'0 0.0
2017-Jan-08 03:33N 34°32' E 135°25'0 0.0
2017-Jan-08 02:30N 34°32' E 135°25'0 0.0
2017-Jan-08 01:32N 34°32' E 135°25'0 0.0
2017-Jan-08 00:12N 34°32' E 135°25'2 3.3
2017-Jan-07 23:33N 34°33' E 135°23'1110.7
2017-Jan-07 22:33N 34°34' E 135°10'  

Dump ship's entire track history